createdAt,value
2017-03-25T00:01:02.296Z,0
2017-03-25T00:02:11.157Z,0
2017-03-25T00:03:20.012Z,0
2017-03-25T00:04:28.880Z,0
2017-03-25T00:05:37.732Z,0
2017-03-25T00:06:46.594Z,0
2017-03-25T00:07:55.487Z,0
2017-03-25T00:09:04.339Z,0
2017-03-25T00:10:13.191Z,0
2017-03-25T00:11:22.048Z,0
2017-03-25T00:12:30.902Z,0
2017-03-25T00:13:40.087Z,0
2017-03-25T00:14:48.942Z,0
2017-03-25T00:15:57.797Z,0
2017-03-25T00:17:06.649Z,0
2017-03-25T00:18:15.512Z,0
2017-03-25T00:19:24.365Z,0
2017-03-25T00:20:33.225Z,0
2017-03-25T00:21:42.085Z,0
2017-03-25T00:22:50.943Z,0
2017-03-25T00:23:59.794Z,0
2017-03-25T00:25:08.652Z,0
2017-03-25T00:26:17.507Z,0
2017-03-25T00:27:26.371Z,0
2017-03-25T00:28:35.555Z,0
2017-03-25T00:29:44.442Z,0
2017-03-25T00:30:53.307Z,0
2017-03-25T00:32:02.165Z,0
2017-03-25T00:33:11.024Z,0
2017-03-25T00:34:19.880Z,0
2017-03-25T00:35:28.731Z,0
2017-03-25T00:36:37.643Z,0
2017-03-25T00:37:46.493Z,0
2017-03-25T00:38:55.366Z,0
2017-03-25T00:40:04.226Z,0
2017-03-25T00:41:13.383Z,0
2017-03-25T00:42:22.237Z,0
2017-03-25T00:43:31.091Z,0
2017-03-25T00:44:39.970Z,0
2017-03-25T00:45:48.847Z,0
2017-03-25T00:46:57.698Z,0
2017-03-25T00:48:06.555Z,0
2017-03-25T00:49:15.409Z,0
2017-03-25T00:50:24.269Z,0
2017-03-25T00:51:33.133Z,0
2017-03-25T00:52:42.309Z,0
2017-03-25T00:53:51.203Z,0
2017-03-25T00:55:00.066Z,0
2017-03-25T00:56:08.917Z,0
2017-03-25T00:57:17.779Z,0
2017-03-25T00:58:26.638Z,0
2017-03-25T00:59:35.814Z,0
2017-03-25T01:00:44.667Z,0
2017-03-25T01:01:53.545Z,0
2017-03-25T01:03:02.397Z,0
2017-03-25T01:04:11.571Z,0
2017-03-25T01:05:20.427Z,0
2017-03-25T01:06:29.283Z,0
2017-03-25T01:07:38.131Z,0
2017-03-25T01:08:46.993Z,0
2017-03-25T01:09:55.842Z,0
2017-03-25T01:11:04.700Z,0
2017-03-25T01:12:13.553Z,0
2017-03-25T01:13:22.412Z,0
2017-03-25T01:14:31.306Z,0
2017-03-25T01:15:40.158Z,0
2017-03-25T01:16:49.021Z,0
2017-03-25T01:17:57.877Z,0
2017-03-25T01:19:06.732Z,0
2017-03-25T01:20:15.621Z,0
2017-03-25T01:21:24.479Z,0
2017-03-25T01:22:33.333Z,0
2017-03-25T01:23:42.184Z,0
2017-03-25T01:24:51.365Z,0
2017-03-25T01:26:00.233Z,0
2017-03-25T01:27:09.093Z,0
2017-03-25T01:28:17.943Z,0
2017-03-25T01:29:26.799Z,0
2017-03-25T01:30:35.680Z,0
2017-03-25T01:31:44.849Z,0
2017-03-25T01:32:53.706Z,0
2017-03-25T01:34:02.559Z,0
2017-03-25T01:35:11.416Z,0
2017-03-25T01:36:20.269Z,0
2017-03-25T01:37:29.125Z,0
2017-03-25T01:38:37.984Z,0
2017-03-25T01:39:46.843Z,0
2017-03-25T01:40:55.695Z,0
2017-03-25T01:42:04.551Z,0
2017-03-25T01:43:13.414Z,0
2017-03-25T01:44:22.272Z,0
2017-03-25T01:45:31.132Z,0
2017-03-25T01:46:39.982Z,0
2017-03-25T01:47:48.841Z,0
2017-03-25T01:48:57.695Z,0
2017-03-25T01:50:06.552Z,0
2017-03-25T01:51:15.411Z,0
2017-03-25T01:52:24.266Z,0
2017-03-25T01:53:33.126Z,0
2017-03-25T01:54:41.979Z,0
2017-03-25T01:55:50.835Z,0
2017-03-25T01:56:59.688Z,0
2017-03-25T01:58:08.544Z,0
2017-03-25T01:59:17.396Z,0
2017-03-25T02:00:26.254Z,0
2017-03-25T02:01:35.107Z,0
2017-03-25T02:02:43.966Z,0
2017-03-25T02:03:52.821Z,0
2017-03-25T02:05:01.673Z,0
2017-03-25T02:06:10.845Z,0
2017-03-25T02:07:19.699Z,0
2017-03-25T02:08:28.547Z,0
2017-03-25T02:09:37.406Z,0
2017-03-25T02:10:46.588Z,0
2017-03-25T02:11:55.438Z,0
2017-03-25T02:13:04.294Z,0
2017-03-25T02:14:13.155Z,0
2017-03-25T02:15:22.005Z,0
2017-03-25T02:16:30.861Z,0
2017-03-25T02:17:40.035Z,0
2017-03-25T02:18:48.959Z,0
2017-03-25T02:19:57.823Z,0
2017-03-25T02:21:06.681Z,0
2017-03-25T02:22:15.533Z,0
2017-03-25T02:23:24.399Z,0
2017-03-25T02:24:33.261Z,0
2017-03-25T02:25:42.750Z,0
2017-03-25T02:26:51.601Z,0
2017-03-25T02:28:00.464Z,0
2017-03-25T02:29:09.315Z,0
2017-03-25T02:30:18.162Z,0
2017-03-25T02:31:27.021Z,0
2017-03-25T02:32:35.877Z,0
2017-03-25T02:33:44.749Z,0
2017-03-25T02:34:53.607Z,0
2017-03-25T02:36:02.458Z,0
2017-03-25T02:37:11.312Z,0
2017-03-25T02:38:20.168Z,0
2017-03-25T02:39:29.021Z,0
2017-03-25T02:40:37.880Z,0
2017-03-25T02:41:47.081Z,0
2017-03-25T02:42:56.265Z,0
2017-03-25T02:44:05.124Z,0
2017-03-25T02:45:13.978Z,0
2017-03-25T02:46:23.148Z,0
2017-03-25T02:47:32.003Z,0
2017-03-25T02:48:40.852Z,0
2017-03-25T02:49:49.718Z,0
2017-03-25T02:50:58.567Z,0
2017-03-25T02:52:07.423Z,0
2017-03-25T02:53:16.278Z,0
2017-03-25T02:54:25.145Z,0
2017-03-25T02:55:34.001Z,0
2017-03-25T02:56:42.856Z,0
2017-03-25T02:57:51.769Z,0
2017-03-25T02:59:00.625Z,0
2017-03-25T03:00:09.485Z,0
2017-03-25T03:01:18.339Z,0
2017-03-25T03:02:27.248Z,0
2017-03-25T03:03:36.110Z,0
2017-03-25T03:04:45.300Z,0
2017-03-25T03:05:54.160Z,0
2017-03-25T03:07:03.011Z,0
2017-03-25T03:08:11.875Z,0
2017-03-25T03:09:20.735Z,0
2017-03-25T03:10:29.600Z,0
2017-03-25T03:11:38.466Z,0
2017-03-25T03:12:47.325Z,0
2017-03-25T03:13:56.202Z,0
2017-03-25T03:15:05.061Z,0
2017-03-25T03:16:13.919Z,0
2017-03-25T03:17:22.778Z,0
2017-03-25T03:18:31.642Z,0
2017-03-25T03:19:40.496Z,0
2017-03-25T03:20:49.345Z,0
2017-03-25T03:21:58.204Z,0
2017-03-25T03:23:07.064Z,0
2017-03-25T03:24:15.928Z,0
2017-03-25T03:25:24.793Z,0
2017-03-25T03:26:33.648Z,0
2017-03-25T03:27:42.505Z,0
2017-03-25T03:28:51.375Z,0
2017-03-25T03:30:00.232Z,0
2017-03-25T03:31:09.091Z,0
2017-03-25T03:32:17.944Z,0
2017-03-25T03:33:26.801Z,0
2017-03-25T03:34:35.662Z,0
2017-03-25T03:35:44.520Z,0
2017-03-25T03:36:53.374Z,0
2017-03-25T03:38:02.235Z,0
2017-03-25T03:39:11.293Z,0
2017-03-25T03:40:20.148Z,0
2017-03-25T03:41:29.001Z,0
2017-03-25T03:42:37.869Z,0
2017-03-25T03:43:46.736Z,0
2017-03-25T03:44:55.598Z,0
2017-03-25T03:46:04.460Z,0
2017-03-25T03:47:13.309Z,0
2017-03-25T03:48:22.177Z,0
2017-03-25T03:49:31.369Z,0
2017-03-25T03:50:40.227Z,0
2017-03-25T03:51:49.080Z,0
2017-03-25T03:52:57.945Z,0
2017-03-25T03:54:06.810Z,0
2017-03-25T03:55:15.670Z,0
2017-03-25T03:56:24.521Z,0
2017-03-25T03:57:33.379Z,0
2017-03-25T03:58:42.235Z,0
2017-03-25T03:59:51.096Z,0
2017-03-25T04:01:00.286Z,0
2017-03-25T04:02:09.148Z,0
2017-03-25T04:03:18.010Z,0
2017-03-25T04:04:26.874Z,0
2017-03-25T04:05:35.731Z,0
2017-03-25T04:06:44.594Z,0
2017-03-25T04:07:53.457Z,0
2017-03-25T04:09:02.317Z,0
2017-03-25T04:10:11.174Z,0
2017-03-25T04:11:20.027Z,0
2017-03-25T04:12:28.879Z,0
2017-03-25T04:13:37.737Z,0
2017-03-25T04:14:46.596Z,0
2017-03-25T04:15:55.448Z,0
2017-03-25T04:17:04.302Z,0
2017-03-25T04:18:13.168Z,0
2017-03-25T04:19:22.032Z,0
2017-03-25T04:20:30.892Z,0
2017-03-25T04:21:40.075Z,0
2017-03-25T04:22:48.929Z,0
2017-03-25T04:23:57.826Z,0
2017-03-25T04:25:06.690Z,0
2017-03-25T04:26:15.587Z,0
2017-03-25T04:27:24.439Z,0
2017-03-25T04:28:33.310Z,0
2017-03-25T04:29:42.162Z,0
2017-03-25T04:30:51.035Z,0
2017-03-25T04:31:59.897Z,0
2017-03-25T04:33:08.757Z,0
2017-03-25T04:34:17.609Z,0
2017-03-25T04:35:26.473Z,0
2017-03-25T04:36:35.647Z,0
2017-03-25T04:37:44.509Z,0
2017-03-25T04:38:53.377Z,0
2017-03-25T04:40:02.235Z,0
2017-03-25T04:41:11.087Z,0
2017-03-25T04:42:19.948Z,0
2017-03-25T04:43:28.808Z,0
2017-03-25T04:44:37.669Z,4
2017-03-25T04:45:46.531Z,4
2017-03-25T04:46:55.381Z,4
2017-03-25T04:48:04.247Z,4
2017-03-25T04:49:13.163Z,4
2017-03-25T04:50:22.026Z,8
2017-03-25T04:51:30.880Z,4
2017-03-25T04:52:40.067Z,4
2017-03-25T04:53:49.247Z,4
2017-03-25T04:54:58.109Z,8
2017-03-25T04:56:06.970Z,8
2017-03-25T04:57:15.826Z,8
2017-03-25T04:58:24.689Z,8
2017-03-25T04:59:33.873Z,12
2017-03-25T05:00:42.737Z,16
2017-03-25T05:01:51.599Z,12
2017-03-25T05:03:00.456Z,16
2017-03-25T05:04:09.322Z,16
2017-03-25T05:05:18.176Z,16
2017-03-25T05:06:27.040Z,20
2017-03-25T05:07:35.904Z,20
2017-03-25T05:08:44.768Z,24
2017-03-25T05:09:53.634Z,28
2017-03-25T05:11:02.487Z,32
2017-03-25T05:12:11.347Z,32
2017-03-25T05:13:20.215Z,36
2017-03-25T05:14:29.077Z,40
2017-03-25T05:15:37.937Z,40
2017-03-25T05:16:46.791Z,44
2017-03-25T05:17:55.642Z,52
2017-03-25T05:19:04.506Z,56
2017-03-25T05:20:13.370Z,60
2017-03-25T05:21:22.225Z,64
2017-03-25T05:22:31.084Z,68
2017-03-25T05:23:39.957Z,72
2017-03-25T05:24:49.141Z,76
2017-03-25T05:25:57.994Z,80
2017-03-25T05:27:06.846Z,84
2017-03-25T05:28:15.705Z,88
2017-03-25T05:29:24.563Z,92
2017-03-25T05:30:33.740Z,96
2017-03-25T05:31:42.596Z,96
2017-03-25T05:32:51.462Z,100
2017-03-25T05:34:00.324Z,108
2017-03-25T05:35:09.189Z,108
2017-03-25T05:36:18.037Z,112
2017-03-25T05:37:26.896Z,116
2017-03-25T05:38:35.764Z,120
2017-03-25T05:39:44.619Z,124
2017-03-25T05:40:53.481Z,132
2017-03-25T05:42:02.335Z,136
2017-03-25T05:43:11.252Z,140
2017-03-25T05:44:20.121Z,144
2017-03-25T05:45:28.988Z,144
2017-03-25T05:46:37.840Z,152
2017-03-25T05:47:46.742Z,156
2017-03-25T05:48:55.629Z,156
2017-03-25T05:50:04.486Z,160
2017-03-25T05:51:13.342Z,160
2017-03-25T05:52:22.208Z,168
2017-03-25T05:53:31.120Z,172
2017-03-25T05:54:39.988Z,176
2017-03-25T05:55:48.850Z,184
2017-03-25T05:56:57.707Z,188
2017-03-25T05:58:06.569Z,200
2017-03-25T05:59:15.439Z,208
2017-03-25T06:00:24.295Z,220
2017-03-25T06:01:33.212Z,228
2017-03-25T06:02:42.070Z,228
2017-03-25T06:03:50.937Z,228
2017-03-25T06:04:59.792Z,232
2017-03-25T06:06:08.657Z,236
2017-03-25T06:07:17.512Z,244
2017-03-25T06:08:26.388Z,244
2017-03-25T06:09:35.251Z,248
2017-03-25T06:10:44.109Z,256
2017-03-25T06:11:52.969Z,260
2017-03-25T06:13:01.831Z,264
2017-03-25T06:14:10.693Z,272
2017-03-25T06:15:19.549Z,280
2017-03-25T06:16:28.456Z,288
2017-03-25T06:17:37.321Z,292
2017-03-25T06:18:46.181Z,300
2017-03-25T06:19:55.040Z,304
2017-03-25T06:21:03.896Z,312
2017-03-25T06:22:12.749Z,316
2017-03-25T06:23:21.607Z,320
2017-03-25T06:24:30.466Z,324
2017-03-25T06:25:39.327Z,332
2017-03-25T06:26:48.222Z,336
2017-03-25T06:27:57.083Z,344
2017-03-25T06:29:05.945Z,348
2017-03-25T06:30:14.819Z,352
2017-03-25T06:31:23.677Z,360
2017-03-25T06:32:32.531Z,368
2017-03-25T06:33:41.403Z,380
2017-03-25T06:34:50.264Z,384
2017-03-25T06:35:59.126Z,392
2017-03-25T06:37:07.988Z,396
2017-03-25T06:38:16.848Z,400
2017-03-25T06:39:25.710Z,404
2017-03-25T06:40:34.569Z,412
2017-03-25T06:41:43.432Z,412
2017-03-25T06:42:52.302Z,416
2017-03-25T06:44:01.164Z,416
2017-03-25T06:45:10.017Z,412
2017-03-25T06:46:18.872Z,420
2017-03-25T06:47:27.733Z,420
2017-03-25T06:48:36.588Z,428
2017-03-25T06:49:45.461Z,436
2017-03-25T06:50:54.316Z,448
2017-03-25T06:52:03.175Z,464
2017-03-25T06:53:12.033Z,480
2017-03-25T06:54:20.901Z,496
2017-03-25T06:55:30.087Z,512
2017-03-25T06:56:38.951Z,524
2017-03-25T06:57:47.802Z,532
2017-03-25T06:58:56.656Z,536
2017-03-25T07:00:05.522Z,540
2017-03-25T07:01:14.383Z,552
2017-03-25T07:02:23.237Z,560
2017-03-25T07:03:32.092Z,568
2017-03-25T07:04:40.956Z,568
2017-03-25T07:05:49.818Z,568
2017-03-25T07:06:58.966Z,564
2017-03-25T07:08:07.823Z,568
2017-03-25T07:09:16.682Z,572
2017-03-25T07:10:25.550Z,584
2017-03-25T07:11:34.723Z,592
2017-03-25T07:12:43.646Z,604
2017-03-25T07:13:52.514Z,596
2017-03-25T07:15:01.384Z,584
2017-03-25T07:16:10.568Z,580
2017-03-25T07:17:19.433Z,576
2017-03-25T07:18:28.293Z,572
2017-03-25T07:19:37.477Z,564
2017-03-25T07:20:46.341Z,552
2017-03-25T07:21:55.195Z,540
2017-03-25T07:23:04.064Z,536
2017-03-25T07:24:12.925Z,536
2017-03-25T07:25:21.786Z,536
2017-03-25T07:26:30.638Z,540
2017-03-25T07:27:39.821Z,540
2017-03-25T07:28:48.683Z,548
2017-03-25T07:29:57.574Z,544
2017-03-25T07:31:06.427Z,540
2017-03-25T07:32:15.282Z,532
2017-03-25T07:33:24.140Z,536
2017-03-25T07:34:32.998Z,528
2017-03-25T07:35:41.855Z,524
2017-03-25T07:36:50.707Z,524
2017-03-25T07:37:59.576Z,532
2017-03-25T07:39:08.441Z,536
2017-03-25T07:40:17.308Z,536
2017-03-25T07:41:26.164Z,536
2017-03-25T07:42:35.018Z,532
2017-03-25T07:43:43.884Z,528
2017-03-25T07:44:53.054Z,512
2017-03-25T07:46:01.925Z,508
2017-03-25T07:47:10.781Z,508
2017-03-25T07:48:19.642Z,508
2017-03-25T07:49:28.503Z,508
2017-03-25T07:50:37.689Z,504
2017-03-25T07:51:46.547Z,500
2017-03-25T07:52:55.442Z,504
2017-03-25T07:54:04.301Z,500
2017-03-25T07:55:13.167Z,504
2017-03-25T07:56:22.024Z,504
2017-03-25T07:57:30.886Z,500
2017-03-25T07:58:40.058Z,504
2017-03-25T07:59:48.918Z,512
2017-03-25T08:00:58.103Z,516
2017-03-25T08:02:06.958Z,520
2017-03-25T08:03:15.820Z,520
2017-03-25T08:04:24.680Z,528
2017-03-25T08:05:33.534Z,544
2017-03-25T08:06:42.393Z,548
2017-03-25T08:07:51.255Z,552
2017-03-25T08:09:00.113Z,584
2017-03-25T08:10:08.971Z,604
2017-03-25T08:11:17.824Z,604
2017-03-25T08:12:26.682Z,640
2017-03-25T08:13:35.546Z,692
2017-03-25T08:14:44.407Z,716
2017-03-25T08:15:53.263Z,724
2017-03-25T08:17:02.121Z,744
2017-03-25T08:18:10.974Z,768
2017-03-25T08:19:19.833Z,784
2017-03-25T08:20:28.694Z,816
2017-03-25T08:21:37.553Z,856
2017-03-25T08:22:46.414Z,904
2017-03-25T08:23:55.271Z,940
2017-03-25T08:25:04.138Z,1000
2017-03-25T08:26:12.990Z,1064
2017-03-25T08:27:21.853Z,1064
2017-03-25T08:28:30.711Z,1064
2017-03-25T08:29:39.573Z,1068
2017-03-25T08:30:48.433Z,1076
2017-03-25T08:31:57.280Z,1064
2017-03-25T08:33:06.134Z,1048
2017-03-25T08:34:14.986Z,1048
2017-03-25T08:35:23.845Z,1056
2017-03-25T08:36:33.016Z,1056
2017-03-25T08:37:42.184Z,1032
2017-03-25T08:38:51.032Z,1020
2017-03-25T08:39:59.893Z,1004
2017-03-25T08:41:08.753Z,1000
2017-03-25T08:42:17.613Z,984
2017-03-25T08:43:26.483Z,960
2017-03-25T08:44:35.366Z,900
2017-03-25T08:45:44.216Z,868
2017-03-25T08:46:53.202Z,868
2017-03-25T08:48:02.257Z,888
2017-03-25T08:49:11.117Z,920
2017-03-25T08:50:19.983Z,960
2017-03-25T08:51:28.839Z,984
2017-03-25T08:52:37.705Z,1016
2017-03-25T08:53:46.579Z,1032
2017-03-25T08:54:55.444Z,1040
2017-03-25T08:56:04.308Z,1048
2017-03-25T08:57:13.164Z,1064
2017-03-25T08:58:22.026Z,1084
2017-03-25T08:59:30.882Z,1120
2017-03-25T09:00:40.071Z,1160
2017-03-25T09:01:48.923Z,1216
2017-03-25T09:02:57.780Z,1252
2017-03-25T09:04:06.635Z,1280
2017-03-25T09:05:15.496Z,1288
2017-03-25T09:06:24.348Z,1232
2017-03-25T09:07:33.211Z,1092
2017-03-25T09:08:42.107Z,1072
2017-03-25T09:09:50.986Z,1028
2017-03-25T09:10:59.902Z,984
2017-03-25T09:12:08.776Z,920
2017-03-25T09:13:17.705Z,864
2017-03-25T09:14:27.036Z,792
2017-03-25T09:15:35.919Z,736
2017-03-25T09:16:44.763Z,728
2017-03-25T09:17:53.754Z,720
2017-03-25T09:19:02.612Z,672
2017-03-25T09:20:11.893Z,644
2017-03-25T09:21:20.821Z,604
2017-03-25T09:22:30.095Z,596
2017-03-25T09:23:39.712Z,604
2017-03-25T09:24:48.999Z,612
2017-03-25T09:25:57.864Z,604
2017-03-25T09:27:06.718Z,600
2017-03-25T09:28:15.577Z,584
2017-03-25T09:29:24.445Z,572
2017-03-25T09:30:33.302Z,540
2017-03-25T09:31:42.214Z,532
2017-03-25T09:32:51.072Z,540
2017-03-25T09:33:59.941Z,560
2017-03-25T09:35:08.803Z,604
2017-03-25T09:36:17.669Z,676
2017-03-25T09:37:26.528Z,780
2017-03-25T09:38:35.391Z,876
2017-03-25T09:39:44.255Z,952
2017-03-25T09:40:53.108Z,1024
2017-03-25T09:42:01.967Z,1064
2017-03-25T09:43:11.141Z,1028
2017-03-25T09:44:20.007Z,1020
2017-03-25T09:45:28.872Z,1012
2017-03-25T09:46:37.739Z,996
2017-03-25T09:47:46.607Z,1048
2017-03-25T09:48:55.466Z,1136
2017-03-25T09:50:04.345Z,1200
2017-03-25T09:51:13.273Z,1236
2017-03-25T09:52:22.128Z,1280
2017-03-25T09:53:30.999Z,1244
2017-03-25T09:54:39.857Z,1164
2017-03-25T09:55:48.716Z,1044
2017-03-25T09:56:57.907Z,964
2017-03-25T09:58:06.818Z,932
2017-03-25T09:59:15.674Z,792
2017-03-25T10:00:24.538Z,752
2017-03-25T10:01:33.396Z,788
2017-03-25T10:02:42.258Z,760
2017-03-25T10:03:51.116Z,556
2017-03-25T10:04:59.981Z,452
2017-03-25T10:06:09.161Z,420
2017-03-25T10:07:18.025Z,396
2017-03-25T10:08:26.888Z,392
2017-03-25T10:09:35.743Z,388
2017-03-25T10:10:44.611Z,412
2017-03-25T10:11:53.475Z,404
2017-03-25T10:13:02.338Z,392
2017-03-25T10:14:11.198Z,404
2017-03-25T10:15:20.060Z,416
2017-03-25T10:16:28.966Z,420
2017-03-25T10:17:37.827Z,436
2017-03-25T10:18:46.698Z,448
2017-03-25T10:19:55.559Z,448
2017-03-25T10:21:04.418Z,444
2017-03-25T10:22:13.276Z,440
2017-03-25T10:23:22.137Z,428
2017-03-25T10:24:31.008Z,420
2017-03-25T10:25:40.193Z,420
2017-03-25T10:26:49.058Z,420
2017-03-25T10:27:57.928Z,428
2017-03-25T10:29:06.805Z,444
2017-03-25T10:30:15.659Z,452
2017-03-25T10:31:24.522Z,452
2017-03-25T10:32:33.379Z,448
2017-03-25T10:33:42.899Z,452
2017-03-25T10:34:51.768Z,456
2017-03-25T10:36:00.625Z,456
2017-03-25T10:37:09.485Z,444
2017-03-25T10:38:18.338Z,448
2017-03-25T10:39:27.201Z,448
2017-03-25T10:40:36.061Z,448
2017-03-25T10:41:44.923Z,444
2017-03-25T10:42:53.781Z,452
2017-03-25T10:44:02.644Z,452
2017-03-25T10:45:11.507Z,452
2017-03-25T10:46:20.375Z,452
2017-03-25T10:47:29.238Z,460
2017-03-25T10:48:38.102Z,468
2017-03-25T10:49:46.962Z,476
2017-03-25T10:50:55.823Z,480
2017-03-25T10:52:04.681Z,484
2017-03-25T10:53:13.585Z,488
2017-03-25T10:54:22.450Z,496
2017-03-25T10:55:31.313Z,500
2017-03-25T10:56:40.168Z,504
2017-03-25T10:57:49.040Z,500
2017-03-25T10:58:57.900Z,512
2017-03-25T11:00:06.760Z,512
2017-03-25T11:01:15.619Z,524
2017-03-25T11:02:24.521Z,524
2017-03-25T11:03:33.445Z,536
2017-03-25T11:04:42.299Z,536
2017-03-25T11:05:51.165Z,540
2017-03-25T11:07:00.999Z,536
2017-03-25T11:08:09.863Z,540
2017-03-25T11:09:18.728Z,540
2017-03-25T11:10:27.591Z,544
2017-03-25T11:11:36.450Z,544
2017-03-25T11:12:45.310Z,548
2017-03-25T11:13:54.171Z,552
2017-03-25T11:15:03.043Z,552
2017-03-25T11:16:11.906Z,556
2017-03-25T11:17:20.763Z,564
2017-03-25T11:18:29.625Z,568
2017-03-25T11:19:38.489Z,580
2017-03-25T11:20:47.346Z,584
2017-03-25T11:21:56.213Z,600
2017-03-25T11:23:05.398Z,608
2017-03-25T11:24:14.268Z,608
2017-03-25T11:25:23.128Z,612
2017-03-25T11:26:31.991Z,620
2017-03-25T11:27:40.851Z,624
2017-03-25T11:28:49.717Z,640
2017-03-25T11:29:58.592Z,648
2017-03-25T11:31:07.772Z,664
2017-03-25T11:32:16.636Z,676
2017-03-25T11:33:25.497Z,692
2017-03-25T11:34:34.369Z,720
2017-03-25T11:35:43.227Z,748
2017-03-25T11:36:52.095Z,780
2017-03-25T11:38:00.952Z,804
2017-03-25T11:39:09.812Z,816
2017-03-25T11:40:18.671Z,832
2017-03-25T11:41:27.529Z,844
2017-03-25T11:42:36.395Z,860
2017-03-25T11:43:45.257Z,876
2017-03-25T11:44:54.117Z,904
2017-03-25T11:46:02.980Z,940
2017-03-25T11:47:11.843Z,960
2017-03-25T11:48:20.715Z,980
2017-03-25T11:49:29.571Z,984
2017-03-25T11:50:38.436Z,988
2017-03-25T11:51:47.288Z,984
2017-03-25T11:52:56.165Z,988
2017-03-25T11:54:05.028Z,1000
2017-03-25T11:55:13.901Z,1024
2017-03-25T11:56:22.804Z,1012
2017-03-25T11:57:31.664Z,1004
2017-03-25T11:58:40.530Z,992
2017-03-25T11:59:49.394Z,960
2017-03-25T12:00:58.261Z,944
2017-03-25T12:02:07.123Z,932
2017-03-25T12:03:16.043Z,924
2017-03-25T12:04:24.910Z,900
2017-03-25T12:05:33.775Z,884
2017-03-25T12:06:42.641Z,864
2017-03-25T12:07:51.575Z,844
2017-03-25T12:09:00.439Z,820
2017-03-25T12:10:09.296Z,800
2017-03-25T12:11:18.162Z,800
2017-03-25T12:12:27.342Z,796
2017-03-25T12:13:36.203Z,816
2017-03-25T12:14:45.066Z,824
2017-03-25T12:15:53.923Z,848
2017-03-25T12:17:02.792Z,880
2017-03-25T12:18:11.649Z,904
2017-03-25T12:19:20.518Z,928
2017-03-25T12:20:29.419Z,956
2017-03-25T12:21:38.285Z,968
2017-03-25T12:22:47.153Z,956
2017-03-25T12:23:56.017Z,952
2017-03-25T12:25:04.887Z,952
2017-03-25T12:26:13.747Z,960
2017-03-25T12:27:22.602Z,968
2017-03-25T12:28:31.466Z,1000
2017-03-25T12:29:40.323Z,1020
2017-03-25T12:30:49.191Z,1036
2017-03-25T12:31:58.051Z,1036
2017-03-25T12:33:06.910Z,1032
2017-03-25T12:34:15.767Z,1036
2017-03-25T12:35:24.625Z,1024
2017-03-25T12:36:33.482Z,1028
2017-03-25T12:37:42.353Z,1076
2017-03-25T12:38:51.226Z,1140
2017-03-25T12:40:00.089Z,1244
2017-03-25T12:41:08.947Z,1336
2017-03-25T12:42:17.807Z,1416
2017-03-25T12:43:26.678Z,1448
2017-03-25T12:44:35.552Z,1452
2017-03-25T12:45:44.418Z,1376
2017-03-25T12:46:53.288Z,1284
2017-03-25T12:48:02.161Z,1188
2017-03-25T12:49:11.019Z,1112
2017-03-25T12:50:19.888Z,1040
2017-03-25T12:51:28.749Z,972
2017-03-25T12:52:37.608Z,904
2017-03-25T12:53:46.541Z,848
2017-03-25T12:54:55.403Z,836
2017-03-25T12:56:04.265Z,820
2017-03-25T12:57:13.122Z,796
2017-03-25T12:58:22.305Z,752
2017-03-25T12:59:31.165Z,724
2017-03-25T13:00:40.027Z,704
2017-03-25T13:01:48.890Z,684
2017-03-25T13:02:57.760Z,680
2017-03-25T13:04:06.619Z,692
2017-03-25T13:05:15.489Z,700
2017-03-25T13:06:24.350Z,700
2017-03-25T13:07:33.211Z,708
2017-03-25T13:08:42.707Z,724
2017-03-25T13:09:51.573Z,740
2017-03-25T13:11:00.430Z,764
2017-03-25T13:12:09.296Z,800
2017-03-25T13:13:18.158Z,812
2017-03-25T13:14:27.022Z,820
2017-03-25T13:15:35.888Z,828
2017-03-25T13:16:44.752Z,840
2017-03-25T13:17:53.612Z,848
2017-03-25T13:19:02.479Z,864
2017-03-25T13:20:11.341Z,896
2017-03-25T13:21:20.201Z,916
2017-03-25T13:22:29.058Z,920
2017-03-25T13:23:37.925Z,916
2017-03-25T13:24:46.780Z,904
2017-03-25T13:25:55.657Z,896
2017-03-25T13:27:04.509Z,900
2017-03-25T13:28:13.373Z,908
2017-03-25T13:29:22.237Z,912
2017-03-25T13:30:31.106Z,912
2017-03-25T13:31:39.972Z,916
2017-03-25T13:32:48.839Z,924
2017-03-25T13:33:57.703Z,924
2017-03-25T13:35:06.561Z,920
2017-03-25T13:36:15.413Z,924
2017-03-25T13:37:24.277Z,944
2017-03-25T13:38:33.141Z,964
2017-03-25T13:39:42.003Z,972
2017-03-25T13:40:50.860Z,996
2017-03-25T13:41:59.723Z,1012
2017-03-25T13:43:08.913Z,1008
2017-03-25T13:44:17.820Z,1008
2017-03-25T13:45:26.688Z,1080
2017-03-25T13:46:35.549Z,1160
2017-03-25T13:47:44.453Z,1240
2017-03-25T13:48:53.330Z,1080
2017-03-25T13:50:02.194Z,1076
2017-03-25T13:51:11.053Z,1240
2017-03-25T13:52:19.949Z,1304
2017-03-25T13:53:28.822Z,1260
2017-03-25T13:54:37.686Z,1196
2017-03-25T13:55:46.554Z,1120
2017-03-25T13:56:55.410Z,1080
2017-03-25T13:58:04.282Z,1032
2017-03-25T13:59:13.469Z,976
2017-03-25T14:00:22.334Z,992
2017-03-25T14:01:31.194Z,1052
2017-03-25T14:02:40.377Z,1036
2017-03-25T14:03:49.252Z,1000
2017-03-25T14:04:58.440Z,964
2017-03-25T14:06:07.299Z,940
2017-03-25T14:07:16.161Z,928
2017-03-25T14:08:25.027Z,920
2017-03-25T14:09:33.893Z,916
2017-03-25T14:10:42.742Z,912
2017-03-25T14:11:51.608Z,896
2017-03-25T14:13:00.472Z,896
2017-03-25T14:14:09.340Z,904
2017-03-25T14:15:18.237Z,912
2017-03-25T14:16:27.118Z,916
2017-03-25T14:17:35.976Z,912
2017-03-25T14:18:44.840Z,932
2017-03-25T14:19:53.699Z,948
2017-03-25T14:21:02.573Z,960
2017-03-25T14:22:11.739Z,972
2017-03-25T14:23:20.605Z,976
2017-03-25T14:24:29.460Z,972
2017-03-25T14:25:38.324Z,964
2017-03-25T14:26:47.185Z,968
2017-03-25T14:27:56.050Z,956
2017-03-25T14:29:04.911Z,952
2017-03-25T14:30:13.770Z,936
2017-03-25T14:31:22.631Z,940
2017-03-25T14:32:31.494Z,948
2017-03-25T14:33:40.358Z,964
2017-03-25T14:34:49.225Z,992
2017-03-25T14:35:58.087Z,1016
2017-03-25T14:37:06.941Z,1012
2017-03-25T14:38:15.865Z,948
2017-03-25T14:39:25.050Z,908
2017-03-25T14:40:33.926Z,920
2017-03-25T14:41:42.783Z,916
2017-03-25T14:42:51.648Z,916
2017-03-25T14:44:00.532Z,924
2017-03-25T14:45:09.390Z,928
2017-03-25T14:46:18.252Z,924
2017-03-25T14:47:27.111Z,916
2017-03-25T14:48:35.973Z,912
2017-03-25T14:49:44.837Z,912
2017-03-25T14:50:53.700Z,908
2017-03-25T14:52:02.561Z,904
2017-03-25T14:53:11.430Z,896
2017-03-25T14:54:20.306Z,884
2017-03-25T14:55:29.165Z,876
2017-03-25T14:56:38.030Z,864
2017-03-25T14:57:46.896Z,848
2017-03-25T14:58:55.758Z,836
2017-03-25T15:00:04.630Z,828
2017-03-25T15:01:13.490Z,820
2017-03-25T15:02:22.358Z,816
2017-03-25T15:03:31.221Z,808
2017-03-25T15:04:40.121Z,808
2017-03-25T15:05:48.976Z,800
2017-03-25T15:06:58.258Z,808
2017-03-25T15:08:07.127Z,816
2017-03-25T15:09:15.986Z,812
2017-03-25T15:10:24.853Z,812
2017-03-25T15:11:33.714Z,808
2017-03-25T15:12:42.572Z,808
2017-03-25T15:13:51.441Z,812
2017-03-25T15:15:00.300Z,812
2017-03-25T15:16:09.166Z,812
2017-03-25T15:17:18.073Z,816
2017-03-25T15:18:26.933Z,824
2017-03-25T15:19:35.842Z,816
2017-03-25T15:20:44.701Z,812
2017-03-25T15:21:53.570Z,804
2017-03-25T15:23:02.432Z,804
2017-03-25T15:24:11.297Z,808
2017-03-25T15:25:20.154Z,800
2017-03-25T15:26:29.012Z,792
2017-03-25T15:27:37.891Z,784
2017-03-25T15:28:46.755Z,780
2017-03-25T15:29:55.616Z,772
2017-03-25T15:31:04.795Z,760
2017-03-25T15:32:13.654Z,752
2017-03-25T15:33:22.522Z,740
2017-03-25T15:34:31.395Z,728
2017-03-25T15:35:40.258Z,716
2017-03-25T15:36:49.113Z,708
2017-03-25T15:37:58.288Z,696
2017-03-25T15:39:07.148Z,680
2017-03-25T15:40:16.044Z,692
2017-03-25T15:41:24.903Z,696
2017-03-25T15:42:33.769Z,692
2017-03-25T15:43:42.634Z,692
2017-03-25T15:44:51.493Z,696
2017-03-25T15:46:00.357Z,700
2017-03-25T15:47:09.220Z,696
2017-03-25T15:48:18.399Z,680
2017-03-25T15:49:27.259Z,668
2017-03-25T15:50:36.113Z,668
2017-03-25T15:51:44.978Z,664
2017-03-25T15:52:53.843Z,668
2017-03-25T15:54:02.703Z,652
2017-03-25T15:55:11.571Z,636
2017-03-25T15:56:20.427Z,616
2017-03-25T15:57:29.282Z,596
2017-03-25T15:58:38.142Z,584
2017-03-25T15:59:47.006Z,580
2017-03-25T16:00:55.863Z,584
2017-03-25T16:02:04.721Z,580
2017-03-25T16:03:13.586Z,584
2017-03-25T16:04:22.446Z,584
2017-03-25T16:05:31.310Z,588
2017-03-25T16:06:40.178Z,588